Time;durP1;ratioP1;P1;durP2;ratioP2;P2;SDS_P1;SDS_P2;PMS_P1;PMS_P2;Temp;Humidity;BMP_temperature;BMP_pressure;BME280_temperature;BME280_humidity;BME280_pressure;Samples;Min_cycle;Max_cycle;Signal;HPM_P1;HPM_P2
2021/01/24 00:01:55;;;;;;;23.30;14.27;;;;;;;;;;689819;197;928584;-69
2021/01/24 00:04:21;;;;;;;40.30;21.70;;;;;;;;;;703016;196;919212;-70
2021/01/24 00:06:47;;;;;;;25.90;15.07;;;;;;;;;;699059;197;920467;-70
2021/01/24 00:09:12;;;;;;;34.20;16.83;;;;;;;;;;695360;200;929559;-69
2021/01/24 00:11:38;;;;;;;22.50;14.48;;;;;;;;;;694245;197;957312;-68
2021/01/24 00:14:04;;;;;;;26.30;15.67;;;;;;;;;;692279;200;920303;-69
2021/01/24 00:16:30;;;;;;;23.58;14.18;;;;;;;;;;693005;201;920285;-69
2021/01/24 00:18:56;;;;;;;20.53;14.33;;;;;;;;;;688934;200;919340;-70
2021/01/24 00:21:22;;;;;;;22.55;14.23;;;;;;;;;;713903;194;1078107;-68
2021/01/24 00:23:48;;;;;;;30.37;15.37;;;;;;;;;;724203;194;915351;-70
2021/01/24 00:26:13;;;;;;;27.70;14.87;;;;;;;;;;718696;194;914922;-70
2021/01/24 00:28:39;;;;;;;30.70;16.50;;;;;;;;;;717366;194;918789;-70
2021/01/24 00:31:05;;;;;;;34.47;18.53;;;;;;;;;;723126;194;918044;-69
2021/01/24 00:33:31;;;;;;;23.83;16.30;;;;;;;;;;716790;194;919273;-69
2021/01/24 00:35:57;;;;;;;31.87;17.77;;;;;;;;;;717737;194;1021093;-69
2021/01/24 00:38:23;;;;;;;29.13;17.60;;;;;;;;;;722261;194;613679;-68
2021/01/24 00:40:48;;;;;;;27.60;19.00;;;;;;;;;;725513;194;637854;-70
2021/01/24 00:43:14;;;;;;;21.97;16.27;;;;;;;;;;719259;194;1135536;-70
2021/01/24 00:45:40;;;;;;;32.67;17.07;;;;;;;;;;720678;194;918785;-69
2021/01/24 00:48:06;;;;;;;31.00;16.83;;;;;;;;;;722319;194;756936;-69
2021/01/24 00:50:32;;;;;;;22.67;14.70;;;;;;;;;;717885;194;919022;-68
2021/01/24 00:52:58;;;;;;;22.67;14.47;;;;;;;;;;716806;194;918916;-70
2021/01/24 00:55:24;;;;;;;23.87;14.27;;;;;;;;;;723226;194;1123186;-69
2021/01/24 00:57:49;;;;;;;18.33;13.37;;;;;;;;;;716805;194;927983;-70
2021/01/24 01:00:16;;;;;;;17.48;12.57;;;;;;;;;;720427;194;919227;-70
2021/01/24 01:02:42;;;;;;;33.90;20.20;;;;;;;;;;725711;194;919509;-70
2021/01/24 01:05:08;;;;;;;28.47;16.60;;;;;;;;;;718948;193;919120;-69
2021/01/24 01:07:34;;;;;;;29.85;16.17;;;;;;;;;;721121;194;918248;-69
2021/01/24 01:09:59;;;;;;;25.90;16.40;;;;;;;;;;716862;194;918983;-68
2021/01/24 01:12:25;;;;;;;26.60;15.90;;;;;;;;;;723564;194;920757;-69
2021/01/24 01:14:51;;;;;;;24.23;15.57;;;;;;;;;;717714;194;919917;-68
2021/01/24 01:17:17;;;;;;;27.47;16.20;;;;;;;;;;719555;194;919764;-68
2021/01/24 01:19:43;;;;;;;31.00;17.20;;;;;;;;;;724094;194;942287;-69
2021/01/24 01:22:08;;;;;;;63.35;31.50;;;;;;;;;;721059;194;915244;-69
2021/01/24 01:24:34;;;;;;;23.73;15.10;;;;;;;;;;715479;194;942659;-69
2021/01/24 01:27:00;;;;;;;43.87;20.50;;;;;;;;;;724349;194;916500;-70
2021/01/24 01:29:26;;;;;;;43.33;19.03;;;;;;;;;;706054;194;3010981;-69
2021/01/24 01:31:52;;;;;;;56.28;27.52;;;;;;;;;;718273;194;1087432;-69
2021/01/24 01:34:18;;;;;;;61.35;27.85;;;;;;;;;;720613;194;919372;-68
2021/01/24 01:36:43;;;;;;;35.10;19.50;;;;;;;;;;729852;194;628145;-69
2021/01/24 01:39:11;;;;;;;23.80;14.50;;;;;;;;;;720315;194;641940;-70
2021/01/24 01:41:37;;;;;;;35.53;20.13;;;;;;;;;;719572;194;626773;-69
2021/01/24 01:44:03;;;;;;;27.73;15.10;;;;;;;;;;727487;194;624660;-69
2021/01/24 01:46:29;;;;;;;27.10;14.50;;;;;;;;;;722642;194;630095;-70
2021/01/24 01:48:55;;;;;;;32.63;15.60;;;;;;;;;;721781;194;919134;-70
2021/01/24 01:51:21;;;;;;;19.63;13.83;;;;;;;;;;721120;194;956096;-70
2021/01/24 01:53:46;;;;;;;48.40;20.90;;;;;;;;;;716954;194;1021341;-70
2021/01/24 01:56:12;;;;;;;188.18;56.20;;;;;;;;;;716010;194;918017;-69
2021/01/24 01:58:39;;;;;;;77.72;33.63;;;;;;;;;;721721;194;919126;-68
2021/01/24 02:01:04;;;;;;;66.60;31.87;;;;;;;;;;719189;195;1122060;-69
2021/01/24 02:03:37;;;;;;;59.23;29.70;;;;;;;;;;719703;194;919454;-70
2021/01/24 02:06:09;;;;;;;40.50;22.63;;;;;;;;;;715377;194;917429;-70
2021/01/24 02:08:38;;;;;;;28.03;17.83;;;;;;;;;;718389;194;918719;-70
2021/01/24 02:11:09;;;;;;;38.57;17.27;;;;;;;;;;721477;191;1090148;-70
2021/01/24 02:13:36;;;;;;;30.93;19.00;;;;;;;;;;723535;194;918601;-71
2021/01/24 02:16:02;;;;;;;28.80;16.63;;;;;;;;;;717107;192;919374;-71
2021/01/24 02:18:28;;;;;;;25.97;15.43;;;;;;;;;;726361;193;931649;-71
2021/01/24 02:20:57;;;;;;;27.60;16.93;;;;;;;;;;718100;193;935687;-70
2021/01/24 02:23:22;;;;;;;24.30;17.53;;;;;;;;;;722162;194;902186;-71
2021/01/24 02:25:51;;;;;;;28.57;17.70;;;;;;;;;;719950;194;918956;-71
2021/01/24 02:28:17;;;;;;;28.67;16.30;;;;;;;;;;722411;194;919911;-69
2021/01/24 02:30:43;;;;;;;28.00;17.40;;;;;;;;;;717963;194;1023865;-71
2021/01/24 02:33:09;;;;;;;26.80;15.80;;;;;;;;;;716540;194;919617;-71
2021/01/24 02:35:35;;;;;;;28.67;15.37;;;;;;;;;;725436;194;919489;-71
2021/01/24 02:38:01;;;;;;;27.93;16.67;;;;;;;;;;711545;194;2069659;-71
2021/01/24 02:40:27;;;;;;;28.33;16.97;;;;;;;;;;719331;194;918801;-70
2021/01/24 02:42:53;;;;;;;28.27;16.40;;;;;;;;;;716622;194;1021070;-71
2021/01/24 02:45:18;;;;;;;29.60;16.63;;;;;;;;;;720743;194;919618;-71
2021/01/24 02:47:44;;;;;;;29.30;17.23;;;;;;;;;;714689;194;1015322;-71
2021/01/24 02:50:10;;;;;;;27.70;15.97;;;;;;;;;;719147;194;919233;-71
2021/01/24 02:52:36;;;;;;;33.73;17.03;;;;;;;;;;722623;194;919430;-71
2021/01/24 02:55:02;;;;;;;28.63;17.63;;;;;;;;;;724709;194;630235;-71
2021/01/24 02:57:28;;;;;;;34.80;16.67;;;;;;;;;;715442;194;2035229;-70
2021/01/24 02:59:54;;;;;;;28.33;15.57;;;;;;;;;;725144;195;626914;-71
2021/01/24 03:02:20;;;;;;;29.92;17.65;;;;;;;;;;721492;194;629648;-71
2021/01/24 03:04:46;;;;;;;30.57;16.47;;;;;;;;;;717976;194;918545;-72
2021/01/24 03:07:12;;;;;;;27.70;16.62;;;;;;;;;;721274;194;918815;-70
2021/01/24 03:09:38;;;;;;;30.27;16.57;;;;;;;;;;724511;191;917072;-71
2021/01/24 03:12:04;;;;;;;32.73;17.20;;;;;;;;;;720150;194;918608;-71
2021/01/24 03:14:30;;;;;;;28.23;15.73;;;;;;;;;;714532;194;920428;-71
2021/01/24 03:16:56;;;;;;;25.60;16.70;;;;;;;;;;722617;194;917759;-72
2021/01/24 03:19:22;;;;;;;31.25;16.25;;;;;;;;;;716275;194;1125978;-71
2021/01/24 03:21:48;;;;;;;24.37;15.63;;;;;;;;;;718742;194;918781;-71
2021/01/24 03:24:14;;;;;;;27.33;16.07;;;;;;;;;;721184;194;915265;-71
2021/01/24 03:26:40;;;;;;;36.93;18.83;;;;;;;;;;717845;192;918470;-71
2021/01/24 03:29:06;;;;;;;28.77;15.73;;;;;;;;;;717817;193;917911;-71
2021/01/24 03:31:32;;;;;;;28.67;16.27;;;;;;;;;;725748;194;918486;-71
2021/01/24 03:33:57;;;;;;;51.50;28.57;;;;;;;;;;718232;194;920764;-72
2021/01/24 03:36:23;;;;;;;64.57;33.10;;;;;;;;;;719609;194;919721;-72
2021/01/24 03:38:54;;;;;;;35.00;21.10;;;;;;;;;;709335;194;2768582;-71
2021/01/24 03:41:19;;;;;;;33.03;17.13;;;;;;;;;;722623;194;1016634;-72
2021/01/24 03:43:45;;;;;;;33.28;18.83;;;;;;;;;;718977;194;921717;-72
2021/01/24 03:46:11;;;;;;;31.73;18.13;;;;;;;;;;717774;194;918392;-72
2021/01/24 03:48:38;;;;;;;35.80;22.83;;;;;;;;;;724216;194;918882;-71
2021/01/24 03:51:03;;;;;;;24.83;15.68;;;;;;;;;;716849;192;1021217;-72
2021/01/24 03:53:29;;;;;;;28.13;17.90;;;;;;;;;;716435;194;919787;-72
2021/01/24 03:55:55;;;;;;;34.90;18.50;;;;;;;;;;722409;194;617511;-72
2021/01/24 03:58:21;;;;;;;31.83;17.10;;;;;;;;;;723336;194;919083;-72
2021/01/24 04:00:47;;;;;;;30.73;16.62;;;;;;;;;;716751;194;919334;-72
2021/01/24 04:03:13;;;;;;;33.23;15.83;;;;;;;;;;720263;194;919385;-72
2021/01/24 04:05:38;;;;;;;30.67;16.97;;;;;;;;;;718606;194;919050;-73
2021/01/24 04:08:04;;;;;;;33.77;17.27;;;;;;;;;;718898;194;919229;-72
2021/01/24 04:10:30;;;;;;;33.73;16.60;;;;;;;;;;716251;194;919488;-73
2021/01/24 04:12:56;;;;;;;25.27;15.70;;;;;;;;;;725046;194;886105;-73
2021/01/24 04:15:22;;;;;;;25.90;15.23;;;;;;;;;;711673;194;925179;-73
2021/01/24 04:17:48;;;;;;;32.17;17.37;;;;;;;;;;719978;194;920644;-74
2021/01/24 04:20:14;;;;;;;28.20;16.30;;;;;;;;;;722611;194;1020350;-74
2021/01/24 04:22:40;;;;;;;28.37;16.30;;;;;;;;;;716426;194;920100;-74
2021/01/24 04:25:06;;;;;;;35.50;17.83;;;;;;;;;;718150;194;919457;-74
2021/01/24 04:27:32;;;;;;;21.33;14.50;;;;;;;;;;712423;194;1956505;-74
2021/01/24 04:29:58;;;;;;;24.30;14.00;;;;;;;;;;723044;194;1041946;-74
2021/01/24 04:32:24;;;;;;;23.40;12.83;;;;;;;;;;716125;194;1019087;-75
2021/01/24 04:34:50;;;;;;;21.17;12.27;;;;;;;;;;717545;194;1021439;-75
2021/01/24 04:37:16;;;;;;;23.90;13.27;;;;;;;;;;722881;194;918224;-74
2021/01/24 04:39:41;;;;;;;22.23;11.67;;;;;;;;;;722340;192;919394;-75
2021/01/24 04:42:07;;;;;;;17.63;11.33;;;;;;;;;;718125;194;1010906;-74
2021/01/24 04:44:33;;;;;;;18.90;10.50;;;;;;;;;;724617;194;918506;-75
2021/01/24 04:46:59;;;;;;;16.53;10.60;;;;;;;;;;714495;194;1654816;-75
2021/01/24 04:49:25;;;;;;;12.43;8.13;;;;;;;;;;721486;194;918820;-74
2021/01/24 04:51:51;;;;;;;12.40;7.77;;;;;;;;;;719485;194;625883;-74
2021/01/24 04:54:17;;;;;;;12.50;7.67;;;;;;;;;;727105;194;635569;-76
2021/01/24 04:56:42;;;;;;;9.90;6.70;;;;;;;;;;720417;194;919020;-76
2021/01/24 04:59:08;;;;;;;10.70;7.50;;;;;;;;;;715246;194;1224674;-76
2021/01/24 05:01:34;;;;;;;11.20;7.30;;;;;;;;;;725588;194;923106;-76
2021/01/24 05:04:00;;;;;;;10.40;7.40;;;;;;;;;;717860;194;919215;-75
2021/01/24 05:06:26;;;;;;;8.70;6.10;;;;;;;;;;719956;194;1014998;-77
2021/01/24 05:08:52;;;;;;;9.90;6.20;;;;;;;;;;720117;194;1173217;-77
2021/01/24 05:11:17;;;;;;;9.83;6.70;;;;;;;;;;719299;194;915158;-75
2021/01/24 05:13:43;;;;;;;10.55;6.95;;;;;;;;;;717915;194;904967;-76
2021/01/24 05:16:09;;;;;;;13.23;7.27;;;;;;;;;;725124;194;919256;-76
2021/01/24 05:18:35;;;;;;;9.30;6.87;;;;;;;;;;718143;194;815842;-77
2021/01/24 05:21:02;;;;;;;12.57;6.63;;;;;;;;;;717729;194;919027;-77
2021/01/24 05:23:27;;;;;;;11.57;6.93;;;;;;;;;;716512;194;918659;-76
2021/01/24 05:25:53;;;;;;;16.40;7.90;;;;;;;;;;724969;194;919155;-77
2021/01/24 05:28:20;;;;;;;13.57;7.97;;;;;;;;;;717071;194;921717;-77
2021/01/24 05:30:46;;;;;;;12.30;7.65;;;;;;;;;;718771;194;920797;-76
2021/01/24 05:33:13;;;;;;;12.17;7.27;;;;;;;;;;722164;194;921106;-74
2021/01/24 05:35:48;;;;;;;14.40;8.97;;;;;;;;;;717845;194;1031023;-76
2021/01/24 05:38:20;;;;;;;13.52;9.30;;;;;;;;;;718743;194;922534;-76
2021/01/24 05:40:46;;;;;;;13.20;8.00;;;;;;;;;;716324;194;1020492;-76
2021/01/24 05:43:12;;;;;;;10.80;7.63;;;;;;;;;;721901;194;1010123;-75
2021/01/24 05:45:37;;;;;;;15.07;9.37;;;;;;;;;;716389;194;922350;-75
2021/01/24 05:48:04;;;;;;;17.77;10.40;;;;;;;;;;719149;194;924472;-75
2021/01/24 05:50:30;;;;;;;12.03;8.33;;;;;;;;;;718849;192;918612;-75
2021/01/24 05:52:56;;;;;;;10.73;7.87;;;;;;;;;;721115;193;918273;-75
2021/01/24 05:55:28;;;;;;;17.37;10.47;;;;;;;;;;712627;193;2134262;-75
2021/01/24 05:57:54;;;;;;;11.38;8.52;;;;;;;;;;721522;194;918494;-74
2021/01/24 06:00:20;;;;;;;11.60;7.60;;;;;;;;;;722848;194;918554;-75
2021/01/24 06:02:46;;;;;;;12.47;7.80;;;;;;;;;;720165;194;919220;-74
2021/01/24 06:05:12;;;;;;;12.35;7.50;;;;;;;;;;718958;194;915438;-75
2021/01/24 06:07:38;;;;;;;12.00;8.57;;;;;;;;;;720539;194;919117;-74
2021/01/24 06:10:04;;;;;;;9.27;6.60;;;;;;;;;;720100;194;913222;-75
2021/01/24 06:12:30;;;;;;;10.18;6.97;;;;;;;;;;718494;194;917403;-75
2021/01/24 06:14:56;;;;;;;7.90;5.53;;;;;;;;;;714791;194;1407806;-75
2021/01/24 06:17:28;;;;;;;9.47;5.90;;;;;;;;;;724223;194;816812;-75
2021/01/24 06:19:54;;;;;;;9.02;5.87;;;;;;;;;;718105;194;1148360;-76
2021/01/24 06:22:20;;;;;;;9.77;6.57;;;;;;;;;;714401;194;920263;-75
2021/01/24 06:24:45;;;;;;;10.80;6.57;;;;;;;;;;719489;194;1021272;-75
2021/01/24 06:27:11;;;;;;;15.82;7.90;;;;;;;;;;720756;193;908963;-75
2021/01/24 06:29:37;;;;;;;12.43;7.63;;;;;;;;;;718327;194;919285;-75
2021/01/24 06:32:03;;;;;;;13.37;8.60;;;;;;;;;;716930;193;919215;-75
2021/01/24 06:34:32;;;;;;;15.60;9.30;;;;;;;;;;725384;194;768756;-75
2021/01/24 06:37:01;;;;;;;16.33;10.00;;;;;;;;;;715693;194;1021726;-75
2021/01/24 06:39:28;;;;;;;17.80;10.03;;;;;;;;;;717302;194;918587;-75
2021/01/24 06:41:54;;;;;;;15.90;10.17;;;;;;;;;;718619;194;918558;-75
2021/01/24 06:44:26;;;;;;;17.73;10.90;;;;;;;;;;720704;194;919202;-76
2021/01/24 06:46:51;;;;;;;17.30;11.13;;;;;;;;;;715016;194;918760;-75
2021/01/24 06:49:17;;;;;;;21.37;11.07;;;;;;;;;;717828;194;941866;-76
2021/01/24 06:51:43;;;;;;;22.87;12.67;;;;;;;;;;719548;194;932475;-76
2021/01/24 06:54:29;;;;;;;18.93;10.90;;;;;;;;;;717636;194;919243;-76
2021/01/24 06:56:55;;;;;;;17.20;10.37;;;;;;;;;;717363;194;817083;-77
2021/01/24 06:59:28;;;;;;;19.10;12.10;;;;;;;;;;719622;194;855894;-77
2021/01/24 07:01:54;;;;;;;20.33;11.50;;;;;;;;;;717035;194;1105836;-77
2021/01/24 07:04:32;;;;;;;21.70;13.30;;;;;;;;;;726080;193;916990;-77
2021/01/24 07:06:59;;;;;;;19.77;12.83;;;;;;;;;;726251;194;815449;-77
2021/01/24 07:09:40;;;;;;;24.30;13.20;;;;;;;;;;718002;194;1020981;-77
2021/01/24 07:12:05;;;;;;;22.47;14.53;;;;;;;;;;718351;194;917590;-75
2021/01/24 07:14:48;;;;;;;23.00;13.23;;;;;;;;;;719294;194;1021866;-77
2021/01/24 07:17:13;;;;;;;21.43;12.30;;;;;;;;;;720623;194;817171;-76
2021/01/24 07:19:41;;;;;;;17.42;11.12;;;;;;;;;;722536;194;918935;-75
2021/01/24 07:22:07;;;;;;;19.03;10.93;;;;;;;;;;720524;194;912339;-77
2021/01/24 07:24:33;;;;;;;18.40;10.00;;;;;;;;;;718696;194;816658;-77
2021/01/24 07:26:59;;;;;;;17.27;11.40;;;;;;;;;;723752;194;912409;-75
2021/01/24 07:29:25;;;;;;;17.27;11.20;;;;;;;;;;719778;194;816383;-76
2021/01/24 07:31:51;;;;;;;18.23;10.47;;;;;;;;;;720572;194;817297;-76
2021/01/24 07:34:21;;;;;;;19.27;10.90;;;;;;;;;;716115;194;918960;-75
2021/01/24 07:36:46;;;;;;;16.90;11.23;;;;;;;;;;723382;194;832682;-76
2021/01/24 07:39:12;;;;;;;17.70;11.90;;;;;;;;;;716497;194;914730;-75
2021/01/24 07:41:38;;;;;;;20.03;11.27;;;;;;;;;;718941;194;902585;-76
2021/01/24 07:44:04;;;;;;;20.13;11.20;;;;;;;;;;717168;194;2022134;-75
2021/01/24 07:46:30;;;;;;;22.13;10.03;;;;;;;;;;717134;194;1021613;-75
2021/01/24 07:48:56;;;;;;;26.50;12.63;;;;;;;;;;718539;194;917715;-74
2021/01/24 07:51:22;;;;;;;24.67;13.10;;;;;;;;;;719451;194;890576;-74
2021/01/24 07:53:47;;;;;;;18.90;10.20;;;;;;;;;;725338;194;918847;-74
2021/01/24 07:56:13;;;;;;;23.03;13.13;;;;;;;;;;719104;194;918137;-74
2021/01/24 07:58:39;;;;;;;21.85;12.65;;;;;;;;;;719506;194;919197;-74
2021/01/24 08:01:05;;;;;;;30.90;14.77;;;;;;;;;;720321;194;1021062;-73
2021/01/24 08:03:31;;;;;;;33.57;15.80;;;;;;;;;;717856;194;919056;-73
2021/01/24 08:06:03;;;;;;;36.87;17.60;;;;;;;;;;719208;194;919076;-74
2021/01/24 08:08:29;;;;;;;39.78;17.20;;;;;;;;;;719575;194;923086;-72
2021/01/24 08:10:54;;;;;;;37.10;16.67;;;;;;;;;;717473;194;917889;-72
2021/01/24 08:13:20;;;;;;;32.80;17.50;;;;;;;;;;720458;192;917079;-71
2021/01/24 08:15:46;;;;;;;33.77;17.47;;;;;;;;;;718385;193;918618;-71
2021/01/24 08:18:12;;;;;;;36.80;17.73;;;;;;;;;;723122;194;915307;-71
2021/01/24 08:20:38;;;;;;;38.37;13.83;;;;;;;;;;716330;194;916484;-71
2021/01/24 08:23:04;;;;;;;27.40;14.25;;;;;;;;;;716972;194;919458;-71
2021/01/24 08:25:30;;;;;;;31.63;15.40;;;;;;;;;;721945;194;916865;-71
2021/01/24 08:27:55;;;;;;;29.97;14.20;;;;;;;;;;721969;194;919496;-71
2021/01/24 08:30:21;;;;;;;27.02;14.73;;;;;;;;;;711863;194;1982914;-72
2021/01/24 08:32:47;;;;;;;29.80;14.70;;;;;;;;;;723873;194;916451;-73
2021/01/24 08:35:15;;;;;;;27.73;13.00;;;;;;;;;;716964;194;1017819;-72
2021/01/24 08:37:41;;;;;;;27.77;12.90;;;;;;;;;;718921;194;918584;-73
2021/01/24 08:40:07;;;;;;;21.00;11.10;;;;;;;;;;718244;194;918062;-73
2021/01/24 08:42:39;;;;;;;27.57;12.77;;;;;;;;;;721223;194;918447;-73
2021/01/24 08:45:05;;;;;;;33.23;13.53;;;;;;;;;;718400;194;918946;-75
2021/01/24 08:47:31;;;;;;;40.23;15.77;;;;;;;;;;714919;194;918488;-74
2021/01/24 08:50:03;;;;;;;49.27;18.70;;;;;;;;;;723126;194;917364;-75
2021/01/24 08:52:29;;;;;;;45.77;17.27;;;;;;;;;;719649;194;1379147;-75
2021/01/24 08:55:05;;;;;;;50.50;17.67;;;;;;;;;;722436;194;649210;-75
2021/01/24 08:57:31;;;;;;;51.90;20.13;;;;;;;;;;716469;194;938715;-76
2021/01/24 08:59:57;;;;;;;48.30;16.70;;;;;;;;;;719740;194;880034;-75
2021/01/24 09:02:28;;;;;;;46.27;16.10;;;;;;;;;;722441;194;632938;-77
2021/01/24 09:04:54;;;;;;;45.53;15.60;;;;;;;;;;716889;194;1020138;-75
2021/01/24 09:07:20;;;;;;;49.72;18.37;;;;;;;;;;717562;194;931341;-74
2021/01/24 09:09:46;;;;;;;61.90;18.97;;;;;;;;;;723954;194;919124;-75
2021/01/24 09:12:13;;;;;;;64.90;17.13;;;;;;;;;;716543;194;1196868;-75
2021/01/24 09:14:39;;;;;;;41.75;14.98;;;;;;;;;;718912;194;1021257;-74
2021/01/24 09:17:06;;;;;;;47.70;16.37;;;;;;;;;;715163;195;920014;-73
2021/01/24 09:19:31;;;;;;;31.73;12.90;;;;;;;;;;726466;194;628754;-73
2021/01/24 09:21:57;;;;;;;44.50;13.03;;;;;;;;;;718224;194;919865;-75
2021/01/24 09:24:23;;;;;;;35.17;13.53;;;;;;;;;;715928;194;918841;-73
2021/01/24 09:26:49;;;;;;;31.73;12.07;;;;;;;;;;725294;193;919201;-73
2021/01/24 09:29:15;;;;;;;28.20;12.50;;;;;;;;;;717207;193;919684;-73
2021/01/24 09:31:41;;;;;;;25.73;11.23;;;;;;;;;;718282;194;1021133;-74
2021/01/24 09:34:07;;;;;;;22.30;10.70;;;;;;;;;;723039;194;918767;-74
2021/01/24 09:36:33;;;;;;;16.73;9.03;;;;;;;;;;720877;194;918820;-75
2021/01/24 09:38:59;;;;;;;37.30;14.00;;;;;;;;;;720767;194;918998;-73
2021/01/24 09:41:25;;;;;;;32.23;12.00;;;;;;;;;;717096;194;1021626;-75
2021/01/24 09:43:51;;;;;;;25.40;12.40;;;;;;;;;;722719;191;918627;-75
2021/01/24 09:46:17;;;;;;;36.77;15.17;;;;;;;;;;720764;194;921533;-75
2021/01/24 09:48:42;;;;;;;29.23;12.83;;;;;;;;;;715927;194;919491;-73
2021/01/24 09:51:08;;;;;;;36.10;16.25;;;;;;;;;;724222;194;917461;-72
2021/01/24 09:53:37;;;;;;;36.07;14.70;;;;;;;;;;715717;193;918210;-73
2021/01/24 09:56:04;;;;;;;50.07;18.57;;;;;;;;;;720422;194;915110;-74
2021/01/24 09:58:30;;;;;;;43.83;20.57;;;;;;;;;;722110;194;916258;-73
2021/01/24 10:00:56;;;;;;;28.00;13.37;;;;;;;;;;706520;194;2645908;-74
2021/01/24 10:03:22;;;;;;;38.87;19.17;;;;;;;;;;718527;194;926007;-74
2021/01/24 10:05:48;;;;;;;43.13;19.60;;;;;;;;;;716190;194;910582;-75
2021/01/24 10:08:14;;;;;;;37.47;18.80;;;;;;;;;;724346;194;919478;-74
2021/01/24 10:10:40;;;;;;;35.50;17.40;;;;;;;;;;715335;194;919579;-73
2021/01/24 10:13:06;;;;;;;37.57;16.40;;;;;;;;;;717010;194;923988;-72
2021/01/24 10:15:31;;;;;;;33.00;17.15;;;;;;;;;;723126;194;818126;-74
2021/01/24 10:17:57;;;;;;;38.90;19.63;;;;;;;;;;718027;194;908991;-74
2021/01/24 10:20:23;;;;;;;34.60;15.90;;;;;;;;;;715730;194;1021035;-73
2021/01/24 10:22:49;;;;;;;38.83;18.17;;;;;;;;;;723584;194;920142;-72
2021/01/24 10:25:15;;;;;;;47.37;19.57;;;;;;;;;;717525;194;919617;-73
2021/01/24 10:27:41;;;;;;;37.20;17.83;;;;;;;;;;720190;194;919657;-72
2021/01/24 10:30:07;;;;;;;33.40;17.77;;;;;;;;;;717232;194;921124;-70
2021/01/24 10:32:33;;;;;;;42.43;20.63;;;;;;;;;;724233;194;939104;-72
2021/01/24 10:34:59;;;;;;;37.17;18.73;;;;;;;;;;714840;194;919504;-73
2021/01/24 10:37:25;;;;;;;30.87;17.03;;;;;;;;;;720317;193;918371;-71
2021/01/24 10:39:51;;;;;;;24.37;13.27;;;;;;;;;;724279;193;997908;-72
2021/01/24 10:42:17;;;;;;;21.60;13.17;;;;;;;;;;715220;193;1581283;-72
2021/01/24 10:44:43;;;;;;;19.90;12.20;;;;;;;;;;720409;194;919034;-72
2021/01/24 10:47:08;;;;;;;19.12;10.68;;;;;;;;;;723692;194;916780;-72
2021/01/24 10:49:34;;;;;;;18.97;11.00;;;;;;;;;;720977;194;918714;-72
2021/01/24 10:52:00;;;;;;;25.90;13.80;;;;;;;;;;716338;194;929002;-70
2021/01/24 10:54:26;;;;;;;27.60;15.03;;;;;;;;;;721334;194;918944;-69
2021/01/24 10:56:52;;;;;;;24.40;14.87;;;;;;;;;;717144;194;919308;-72
2021/01/24 10:59:18;;;;;;;26.10;15.38;;;;;;;;;;717822;194;919075;-72
2021/01/24 11:01:43;;;;;;;27.20;15.33;;;;;;;;;;716374;194;917707;-70
2021/01/24 11:04:09;;;;;;;28.80;15.37;;;;;;;;;;723778;194;927756;-70
2021/01/24 11:06:35;;;;;;;30.40;17.30;;;;;;;;;;715918;194;917533;-71
2021/01/24 11:09:01;;;;;;;30.10;15.90;;;;;;;;;;719814;194;816113;-71
2021/01/24 11:11:27;;;;;;;32.03;15.10;;;;;;;;;;721952;194;916738;-70
2021/01/24 11:13:53;;;;;;;24.40;13.43;;;;;;;;;;719326;194;919613;-70
2021/01/24 11:16:19;;;;;;;22.33;14.17;;;;;;;;;;718268;194;918625;-69
2021/01/24 11:18:44;;;;;;;18.77;10.73;;;;;;;;;;721097;194;917714;-69
2021/01/24 11:21:10;;;;;;;18.30;9.97;;;;;;;;;;718389;194;920312;-70
2021/01/24 11:23:36;;;;;;;21.00;10.40;;;;;;;;;;718641;194;913216;-70
2021/01/24 11:26:03;;;;;;;15.50;10.15;;;;;;;;;;724560;194;945836;-70
2021/01/24 11:28:28;;;;;;;18.40;12.03;;;;;;;;;;723266;191;1022006;-71
2021/01/24 11:30:54;;;;;;;15.90;9.93;;;;;;;;;;718275;194;916465;-71
2021/01/24 11:33:20;;;;;;;21.53;12.20;;;;;;;;;;716670;194;919543;-70
2021/01/24 11:35:46;;;;;;;24.60;13.40;;;;;;;;;;722473;194;918851;-70
2021/01/24 11:38:12;;;;;;;18.05;11.38;;;;;;;;;;718220;194;929974;-70
2021/01/24 11:40:38;;;;;;;18.30;10.67;;;;;;;;;;720862;194;918837;-72
2021/01/24 11:43:04;;;;;;;19.13;12.07;;;;;;;;;;721131;194;918941;-71
2021/01/24 11:45:30;;;;;;;25.57;14.37;;;;;;;;;;719883;194;918801;-69
2021/01/24 11:47:56;;;;;;;24.13;13.40;;;;;;;;;;716048;192;1059840;-72
2021/01/24 11:50:21;;;;;;;22.67;11.57;;;;;;;;;;725570;193;915302;-71
2021/01/24 11:52:47;;;;;;;24.07;13.87;;;;;;;;;;718969;194;919324;-73
2021/01/24 11:55:13;;;;;;;24.63;13.60;;;;;;;;;;718598;194;919337;-71
2021/01/24 11:57:39;;;;;;;23.97;13.13;;;;;;;;;;719961;194;918825;-72
2021/01/24 12:00:05;;;;;;;25.87;14.67;;;;;;;;;;722510;194;916359;-72
2021/01/24 12:02:31;;;;;;;35.53;15.50;;;;;;;;;;716988;194;920397;-71
2021/01/24 12:04:57;;;;;;;24.57;13.50;;;;;;;;;;717696;194;1025993;-70
2021/01/24 12:07:23;;;;;;;27.43;15.83;;;;;;;;;;723236;194;914929;-72
2021/01/24 12:09:49;;;;;;;25.87;13.77;;;;;;;;;;727675;194;625283;-72
2021/01/24 12:12:15;;;;;;;29.60;15.60;;;;;;;;;;720991;194;919696;-72
2021/01/24 12:14:41;;;;;;;23.40;13.80;;;;;;;;;;721812;194;918776;-72
2021/01/24 12:17:06;;;;;;;21.70;13.97;;;;;;;;;;723835;194;631128;-73
2021/01/24 12:19:33;;;;;;;23.93;14.40;;;;;;;;;;720701;194;919109;-74
2021/01/24 12:21:59;;;;;;;24.07;12.53;;;;;;;;;;723625;194;918105;-73
2021/01/24 12:24:24;;;;;;;24.20;12.90;;;;;;;;;;715725;194;923089;-73
2021/01/24 12:26:50;;;;;;;21.13;11.00;;;;;;;;;;719300;194;918294;-75
2021/01/24 12:29:16;;;;;;;24.07;12.87;;;;;;;;;;716278;194;1021411;-72
2021/01/24 12:31:42;;;;;;;20.47;12.60;;;;;;;;;;725219;194;633883;-76
2021/01/24 12:34:08;;;;;;;24.97;13.73;;;;;;;;;;718078;194;915730;-74
2021/01/24 12:36:34;;;;;;;23.87;13.77;;;;;;;;;;710235;194;1126613;-73
2021/01/24 12:39:00;;;;;;;23.10;12.03;;;;;;;;;;723503;194;918474;-73
2021/01/24 12:41:26;;;;;;;25.70;15.50;;;;;;;;;;720721;194;815884;-72
2021/01/24 12:43:52;;;;;;;27.07;14.20;;;;;;;;;;723488;194;634314;-73
2021/01/24 12:46:17;;;;;;;26.83;13.87;;;;;;;;;;724373;194;630498;-74
2021/01/24 12:48:43;;;;;;;26.20;14.90;;;;;;;;;;719069;194;919493;-74
2021/01/24 12:51:09;;;;;;;27.00;15.07;;;;;;;;;;718013;194;920636;-73
2021/01/24 12:53:35;;;;;;;25.13;14.53;;;;;;;;;;721712;194;918015;-75
2021/01/24 12:56:01;;;;;;;29.27;15.93;;;;;;;;;;720267;194;1655343;-72
2021/01/24 12:58:29;;;;;;;26.60;14.70;;;;;;;;;;719562;194;907238;-73
2021/01/24 13:00:53;;;;;;;29.13;16.40;;;;;;;;;;717807;193;1022561;-72
2021/01/24 13:03:19;;;;;;;32.53;17.23;;;;;;;;;;725545;194;899794;-73
2021/01/24 13:05:46;;;;;;;23.50;12.77;;;;;;;;;;721320;193;918543;-74
2021/01/24 13:08:12;;;;;;;31.80;15.90;;;;;;;;;;709286;197;929741;-74
2021/01/24 13:10:38;;;;;;;23.70;13.47;;;;;;;;;;713664;197;918358;-74
2021/01/24 13:13:04;;;;;;;28.73;15.30;;;;;;;;;;706347;197;915571;-74
2021/01/24 13:15:30;;;;;;;28.73;15.20;;;;;;;;;;704765;197;921758;-74
2021/01/24 13:17:55;;;;;;;27.10;14.77;;;;;;;;;;702753;197;1193022;-72
2021/01/24 13:20:21;;;;;;;29.23;14.70;;;;;;;;;;712016;197;918817;-74
2021/01/24 13:22:47;;;;;;;27.37;16.80;;;;;;;;;;706954;197;905580;-74
2021/01/24 13:25:13;;;;;;;27.90;15.20;;;;;;;;;;708237;197;917816;-75
2021/01/24 13:27:39;;;;;;;29.65;16.52;;;;;;;;;;710768;197;916124;-75
2021/01/24 13:30:06;;;;;;;24.90;16.20;;;;;;;;;;708231;197;918669;-76
2021/01/24 13:32:32;;;;;;;26.03;14.60;;;;;;;;;;706338;197;910041;-73
2021/01/24 13:34:57;;;;;;;27.80;16.10;;;;;;;;;;713670;197;918596;-74
2021/01/24 13:37:23;;;;;;;22.27;14.30;;;;;;;;;;704080;197;1094584;-74
2021/01/24 13:39:49;;;;;;;25.23;14.57;;;;;;;;;;705269;197;920007;-75
2021/01/24 13:42:15;;;;;;;21.57;13.93;;;;;;;;;;709268;197;915401;-76
2021/01/24 13:44:41;;;;;;;25.80;16.10;;;;;;;;;;707760;197;912774;-77
2021/01/24 13:47:07;;;;;;;24.83;14.10;;;;;;;;;;709681;197;909929;-77
2021/01/24 13:49:33;;;;;;;22.67;13.37;;;;;;;;;;708585;197;706284;-75
2021/01/24 13:51:58;;;;;;;27.83;14.37;;;;;;;;;;712441;197;910697;-77
2021/01/24 13:54:24;;;;;;;30.07;13.80;;;;;;;;;;708259;197;913612;-76
2021/01/24 13:56:50;;;;;;;25.63;14.67;;;;;;;;;;705105;198;912361;-77
2021/01/24 13:59:16;;;;;;;24.67;14.60;;;;;;;;;;709893;197;804130;-77